Time;durP1;ratioP1;P1;durP2;ratioP2;P2;SDS_P1;SDS_P2;PMS_P1;PMS_P2;Temp;Humidity;BMP_temperature;BMP_pressure;BME280_temperature;BME280_humidity;BME280_pressure;Samples;Min_cycle;Max_cycle;Signal;HPM_P1;HPM_P2
2023/09/24 00:01:20;;;;;;;8.82;3.58;;;;;;;10.99;100.00;101167.72;4970265;28;20042;-74
2023/09/24 00:03:49;;;;;;;8.65;3.70;;;;;;;10.97;100.00;101164.25;4985239;28;20046;-74
2023/09/24 00:06:18;;;;;;;7.10;3.77;;;;;;;10.96;100.00;101170.47;4988321;28;20050;-74
2023/09/24 00:08:49;;;;;;;6.82;3.40;;;;;;;10.92;100.00;101168.84;4969082;28;20046;-75
2023/09/24 00:11:19;;;;;;;9.02;3.55;;;;;;;10.94;100.00;101172.31;4977756;28;20665;-74
2023/09/24 00:13:48;;;;;;;8.55;3.72;;;;;;;10.97;100.00;101182.81;4970838;28;20049;-74
2023/09/24 00:16:22;;;;;;;7.90;3.35;;;;;;;10.96;100.00;101189.03;4983594;28;20061;-73
2023/09/24 00:18:50;;;;;;;6.38;3.40;;;;;;;10.94;100.00;101190.88;4963177;28;20071;-73
2023/09/24 00:21:18;;;;;;;10.35;3.78;;;;;;;10.94;100.00;101189.09;4980971;28;20097;-73
2023/09/24 00:23:48;;;;;;;5.30;3.25;;;;;;;11.04;100.00;101189.59;4986862;28;20524;-75
2023/09/24 00:26:18;;;;;;;9.10;3.33;;;;;;;11.10;100.00;101192.03;5000848;28;20077;-73
2023/09/24 00:28:52;;;;;;;7.18;3.38;;;;;;;11.14;100.00;101189.22;4951424;28;20574;-73
2023/09/24 00:31:21;;;;;;;6.03;3.03;;;;;;;11.13;100.00;101197.25;4976758;28;20050;-74
2023/09/24 00:33:55;;;;;;;4.70;3.20;;;;;;;11.05;100.00;101194.00;4952393;28;20039;-74
2023/09/24 00:36:23;;;;;;;7.38;3.67;;;;;;;11.03;100.00;101191.38;4965180;28;20058;-74
2023/09/24 00:38:52;;;;;;;5.70;3.28;;;;;;;11.03;100.00;101194.03;4968130;28;20046;-74
2023/09/24 00:41:20;;;;;;;10.32;4.18;;;;;;;10.99;100.00;101196.88;4974825;28;20080;-73
2023/09/24 00:43:51;;;;;;;9.30;3.75;;;;;;;10.99;100.00;101191.56;4964733;28;20152;-74
2023/09/24 00:46:21;;;;;;;8.30;3.47;;;;;;;10.94;100.00;101194.38;4951498;28;20057;-74
2023/09/24 00:48:53;;;;;;;8.73;3.75;;;;;;;10.89;100.00;101199.84;4971739;28;20070;-73
2023/09/24 00:51:22;;;;;;;9.15;4.15;;;;;;;10.87;100.00;101203.44;4950682;28;20042;-73
2023/09/24 00:53:53;;;;;;;8.07;3.88;;;;;;;10.82;100.00;101202.78;4982851;28;20061;-75
2023/09/24 00:56:22;;;;;;;8.73;3.58;;;;;;;10.76;100.00;101205.63;4966163;28;20062;-73
2023/09/24 00:58:53;;;;;;;9.27;3.67;;;;;;;10.65;100.00;101190.13;4940116;28;20042;-73
2023/09/24 01:01:24;;;;;;;7.60;3.78;;;;;;;10.71;100.00;101202.25;4960672;28;20043;-73
2023/09/24 01:03:55;;;;;;;5.13;3.25;;;;;;;10.65;100.00;101190.13;4984525;28;20499;-74
2023/09/24 01:06:24;;;;;;;7.35;3.60;;;;;;;10.68;100.00;101192.66;4964975;28;20038;-74
2023/09/24 01:08:53;;;;;;;5.53;3.28;;;;;;;10.70;100.00;101198.78;4981134;28;20053;-74
2023/09/24 01:11:21;;;;;;;6.50;3.72;;;;;;;10.72;100.00;101202.22;4965624;28;20055;-74
2023/09/24 01:13:50;;;;;;;7.03;3.72;;;;;;;10.72;100.00;101207.50;4955214;28;20049;-74
2023/09/24 01:16:22;;;;;;;7.13;3.42;;;;;;;10.67;100.00;101198.88;4971052;28;20133;-73
2023/09/24 01:18:53;;;;;;;9.55;4.00;;;;;;;10.71;100.00;101192.53;4980465;28;20053;-73
2023/09/24 01:21:26;;;;;;;5.47;3.17;;;;;;;10.72;100.00;101194.25;4963945;28;20050;-73
2023/09/24 01:23:59;;;;;;;6.03;3.85;;;;;;;10.76;100.00;101195.91;4983651;28;20069;-74
2023/09/24 01:26:28;;;;;;;7.43;3.85;;;;;;;10.78;100.00;101201.13;4960102;28;20132;-74
2023/09/24 01:28:59;;;;;;;7.07;3.70;;;;;;;10.78;100.00;101201.13;4975288;28;20085;-74
2023/09/24 01:31:27;;;;;;;7.68;3.55;;;;;;;10.76;100.00;101185.28;4976469;28;20054;-73
2023/09/24 01:33:59;;;;;;;7.68;3.58;;;;;;;10.81;100.00;101196.59;4970173;28;20054;-74
2023/09/24 01:36:29;;;;;;;5.32;3.25;;;;;;;10.84;100.00;101191.22;4967108;28;20066;-74
2023/09/24 01:38:59;;;;;;;7.20;3.88;;;;;;;10.81;100.00;101191.31;4999196;28;20054;-74
2023/09/24 01:41:30;;;;;;;7.63;3.50;;;;;;;10.81;100.00;101196.59;4947362;28;20051;-74
2023/09/24 01:43:59;;;;;;;9.07;3.97;;;;;;;10.81;100.00;101201.91;4969364;28;20043;-74
2023/09/24 01:46:29;;;;;;;5.43;3.38;;;;;;;10.80;100.00;101196.66;4970976;28;20059;-74
2023/09/24 01:48:59;;;;;;;7.57;3.50;;;;;;;10.80;100.00;101200.19;4968846;28;20132;-74
2023/09/24 01:51:27;;;;;;;6.40;4.07;;;;;;;10.72;100.00;101183.66;4945018;28;20057;-74
2023/09/24 01:53:57;;;;;;;6.70;3.28;;;;;;;10.74;100.00;101194.22;4984411;28;20110;-73
2023/09/24 01:56:26;;;;;;;9.32;4.80;;;;;;;10.79;100.00;101205.53;4987787;28;20043;-74
2023/09/24 01:58:53;;;;;;;9.45;3.97;;;;;;;10.79;100.00;101209.03;4979820;28;20046;-74
2023/09/24 02:01:22;;;;;;;9.68;4.20;;;;;;;10.78;100.00;101211.75;4967926;28;20133;-74
2023/09/24 02:03:50;;;;;;;6.53;4.20;;;;;;;10.71;100.00;101204.91;4972203;28;20106;-74
2023/09/24 02:06:19;;;;;;;9.02;3.95;;;;;;;10.75;100.00;101220.66;4976231;28;20057;-73
2023/09/24 02:08:50;;;;;;;9.00;3.97;;;;;;;10.73;100.00;101209.25;4968989;28;20054;-74
2023/09/24 02:11:19;;;;;;;5.50;4.00;;;;;;;10.68;100.00;101208.56;4981046;28;20536;-74
2023/09/24 02:13:49;;;;;;;7.25;3.97;;;;;;;10.69;100.00;101215.59;4989058;28;20552;-74
2023/09/24 02:16:18;;;;;;;9.27;4.18;;;;;;;10.64;100.00;101211.34;4972833;28;20053;-74
2023/09/24 02:18:47;;;;;;;6.22;4.10;;;;;;;10.67;100.00;101225.38;4975226;28;20070;-74
2023/09/24 02:21:18;;;;;;;7.55;4.07;;;;;;;10.65;100.00;101216.59;4978036;28;20352;-74
2023/09/24 02:23:46;;;;;;;7.35;4.22;;;;;;;10.54;100.00;101209.03;4971297;28;20125;-74
2023/09/24 02:26:15;;;;;;;6.78;3.80;;;;;;;10.64;100.00;101224.59;4964984;28;20077;-74
2023/09/24 02:28:43;;;;;;;8.48;3.72;;;;;;;10.67;100.00;101220.06;4953161;28;20047;-74
2023/09/24 02:31:13;;;;;;;7.47;4.15;;;;;;;10.73;100.00;101221.63;4947537;28;20046;-75
2023/09/24 02:33:43;;;;;;;7.35;3.90;;;;;;;10.83;100.00;101237.16;4981324;28;20450;-74
2023/09/24 02:36:13;;;;;;;8.73;3.85;;;;;;;10.83;100.00;101237.16;4963485;28;20149;-73
2023/09/24 02:38:44;;;;;;;10.10;4.25;;;;;;;10.78;100.00;101247.03;4969841;28;20054;-72
2023/09/24 02:41:12;;;;;;;9.38;3.78;;;;;;;10.74;100.00;101253.34;4976054;28;20414;-73
2023/09/24 02:43:40;;;;;;;7.88;4.10;;;;;;;10.70;100.00;101259.69;4985000;28;20708;-73
2023/09/24 02:46:09;;;;;;;6.75;4.07;;;;;;;10.63;100.00;101255.50;4964794;28;20489;-73
2023/09/24 02:48:42;;;;;;;5.88;3.53;;;;;;;10.59;100.00;101253.00;4953056;28;20054;-73
2023/09/24 02:51:13;;;;;;;5.20;3.63;;;;;;;10.53;100.00;101254.97;4981554;28;20054;-73
2023/09/24 02:53:43;;;;;;;5.90;4.00;;;;;;;10.48;100.00;101248.06;4970343;28;20123;-75
2023/09/24 02:56:12;;;;;;;5.57;3.43;;;;;;;10.38;100.00;101249.31;4988190;28;20046;-73
2023/09/24 02:58:41;;;;;;;6.95;3.60;;;;;;;10.39;100.00;101258.97;4975322;28;20043;-73
2023/09/24 03:01:15;;;;;;;7.93;4.13;;;;;;;10.36;100.00;101254.66;4968015;28;20057;-73
2023/09/24 03:03:50;;;;;;;8.60;4.78;;;;;;;10.42;100.00;101246.47;4984532;28;20146;-73
2023/09/24 03:06:20;;;;;;;8.07;4.53;;;;;;;10.56;100.00;101259.28;4971330;28;20054;-73
2023/09/24 03:08:49;;;;;;;9.05;4.05;;;;;;;10.63;100.00;101254.66;4986031;28;20138;-73
2023/09/24 03:11:19;;;;;;;7.90;4.05;;;;;;;10.66;100.00;101268.66;4964763;28;20054;-73
2023/09/24 03:13:50;;;;;;;7.90;3.75;;;;;;;10.62;100.00;101259.06;4986829;28;20428;-73
2023/09/24 03:16:17;;;;;;;6.75;3.63;;;;;;;10.69;100.00;101273.00;4974358;28;20046;-73
2023/09/24 03:18:47;;;;;;;6.28;3.55;;;;;;;10.71;100.00;101272.00;4989436;28;20478;-73
2023/09/24 03:21:16;;;;;;;4.78;3.30;;;;;;;10.71;100.00;101274.66;4992863;28;20174;-73
2023/09/24 03:23:44;;;;;;;6.57;3.47;;;;;;;10.69;100.00;101281.81;4964976;28;20061;-73
2023/09/24 03:26:16;;;;;;;5.57;3.60;;;;;;;10.66;100.00;101271.31;5000624;28;20065;-74
2023/09/24 03:28:44;;;;;;;4.60;3.50;;;;;;;10.65;100.00;101274.88;5004168;28;20065;-73
2023/09/24 03:31:14;;;;;;;5.82;3.83;;;;;;;10.64;100.00;101273.13;4986210;28;20066;-75
2023/09/24 03:33:42;;;;;;;6.45;3.42;;;;;;;10.61;100.00;101289.13;4983352;28;20046;-73
2023/09/24 03:36:12;;;;;;;5.75;3.78;;;;;;;10.52;100.00;101285.00;5000663;28;20049;-73
2023/09/24 03:38:40;;;;;;;5.70;3.47;;;;;;;10.53;100.00;101296.47;5002325;28;20046;-73
2023/09/24 03:41:09;;;;;;;5.97;3.80;;;;;;;10.44;100.00;101291.44;4994596;28;20046;-73
2023/09/24 03:43:37;;;;;;;6.45;3.50;;;;;;;10.39;100.00;101298.69;4991514;28;20062;-73
2023/09/24 03:46:05;;;;;;;9.00;4.00;;;;;;;10.34;100.00;101295.31;4973178;28;20047;-73
2023/09/24 03:48:35;;;;;;;5.32;3.83;;;;;;;10.30;100.00;101298.97;4954274;28;20569;-75
2023/09/24 03:51:03;;;;;;;9.02;3.85;;;;;;;10.24;100.00;101301.78;4963944;28;20046;-73
2023/09/24 03:53:34;;;;;;;7.60;3.50;;;;;;;10.13;100.00;101305.63;4956898;28;20058;-73
2023/09/24 03:56:04;;;;;;;6.20;4.07;;;;;;;10.04;100.00;101295.34;4991219;28;20073;-74
2023/09/24 03:58:33;;;;;;;6.55;4.15;;;;;;;9.95;100.00;101292.94;4983101;28;20074;-72
2023/09/24 04:01:11;;;;;;;6.78;3.83;;;;;;;9.78;100.00;101301.38;4990846;28;20054;-73
2023/09/24 04:03:40;;;;;;;6.88;4.28;;;;;;;9.59;100.00;101304.63;4955943;28;20108;-73
2023/09/24 04:06:10;;;;;;;6.93;3.85;;;;;;;9.51;100.00;101315.41;4985493;28;20049;-74
2023/09/24 04:08:40;;;;;;;7.28;4.10;;;;;;;9.27;100.00;101290.53;4974896;28;20076;-73
2023/09/24 04:11:11;;;;;;;8.38;4.53;;;;;;;9.37;100.00;101315.78;4962395;28;20069;-73
2023/09/24 04:13:40;;;;;;;8.07;4.30;;;;;;;9.33;100.00;101324.69;4970684;28;20456;-74
2023/09/24 04:16:10;;;;;;;8.13;4.72;;;;;;;9.30;100.00;101327.41;4981071;28;20128;-74
2023/09/24 04:18:41;;;;;;;9.13;4.47;;;;;;;9.30;100.00;101334.47;4966346;28;20066;-73
2023/09/24 04:21:16;;;;;;;7.50;4.55;;;;;;;9.27;100.00;101335.44;4950888;28;20843;-73
2023/09/24 04:23:47;;;;;;;8.85;4.70;;;;;;;9.27;100.00;101330.16;4981116;28;20084;-73
2023/09/24 04:26:21;;;;;;;7.05;4.60;;;;;;;9.30;100.00;101324.78;4983845;28;20137;-73
2023/09/24 04:28:50;;;;;;;9.60;5.00;;;;;;;9.36;100.00;101342.25;4984923;28;20066;-73
2023/09/24 04:31:18;;;;;;;9.35;4.63;;;;;;;9.28;100.00;101339.84;4963426;28;20109;-74
2023/09/24 04:33:48;;;;;;;8.55;4.65;;;;;;;9.18;100.00;101346.25;4985233;28;20060;-73
2023/09/24 04:36:18;;;;;;;7.15;4.90;;;;;;;9.09;100.00;101347.38;4969968;28;20050;-73
2023/09/24 04:38:48;;;;;;;7.03;4.45;;;;;;;9.00;100.00;101344.06;4965834;28;20057;-73
2023/09/24 04:41:16;;;;;;;8.77;4.95;;;;;;;8.96;100.00;101353.88;4966190;28;20042;-72
2023/09/24 04:43:46;;;;;;;7.97;5.05;;;;;;;8.88;100.00;101347.91;4965741;28;20062;-73
2023/09/24 04:46:17;;;;;;;8.40;5.40;;;;;;;8.89;100.00;101360.19;4984071;28;20042;-73
2023/09/24 04:48:48;;;;;;;8.50;5.45;;;;;;;8.89;100.00;101365.47;4983075;28;20168;-73
2023/09/24 04:51:16;;;;;;;6.53;4.75;;;;;;;8.85;100.00;101352.38;4965790;28;20526;-73
2023/09/24 04:53:45;;;;;;;10.10;5.30;;;;;;;8.99;100.00;101371.41;4949659;28;20069;-73
2023/09/24 04:56:18;;;;;;;8.25;4.90;;;;;;;8.96;100.00;101376.78;4982849;28;20049;-73
2023/09/24 04:58:47;;;;;;;8.68;5.30;;;;;;;8.77;100.00;101357.88;4960224;28;20050;-73
2023/09/24 05:01:17;;;;;;;8.82;5.43;;;;;;;8.75;100.00;101373.75;4987649;28;20046;-73
2023/09/24 05:03:45;;;;;;;7.53;5.13;;;;;;;8.69;100.00;101388.84;4988332;28;20046;-73
2023/09/24 05:06:14;;;;;;;7.45;5.40;;;;;;;8.64;100.00;101391.63;4972102;28;20089;-73
2023/09/24 05:08:42;;;;;;;7.85;5.80;;;;;;;8.65;100.00;101398.66;4972816;28;20450;-75
2023/09/24 05:11:11;;;;;;;8.15;5.35;;;;;;;8.62;100.00;101406.63;4968879;28;20054;-73
2023/09/24 05:13:41;;;;;;;8.07;5.68;;;;;;;8.67;100.00;101411.78;4946507;28;20135;-74
2023/09/24 05:16:10;;;;;;;;;;;;;;;8.74;100.00;101416.91;4970320;28;20050;-73
2023/09/24 05:18:41;;;;;;;9.77;5.13;;;;;;;8.77;100.00;101422.13;4966476;28;21303;-72
2023/09/24 05:21:17;;;;;;;7.45;5.40;;;;;;;8.76;100.00;101433.59;4955130;28;20038;-72
2023/09/24 05:23:46;;;;;;;10.30;5.47;;;;;;;8.71;100.00;101424.03;4980723;28;20074;-74
2023/09/24 05:26:14;;;;;;;8.90;5.55;;;;;;;8.69;100.00;101437.25;4986483;28;20073;-75
2023/09/24 05:28:44;;;;;;;9.25;5.38;;;;;;;8.71;100.00;101434.59;4968328;28;20043;-73
2023/09/24 05:31:12;;;;;;;11.35;6.05;;;;;;;8.84;100.00;101440.44;4991230;28;20050;-73
2023/09/24 05:33:44;;;;;;;9.65;5.82;;;;;;;8.89;100.00;101443.84;4967051;28;20507;-74
2023/09/24 05:36:14;;;;;;;7.97;4.95;;;;;;;8.92;100.00;101442.03;4973413;28;20030;-72
2023/09/24 05:38:42;;;;;;;6.30;5.03;;;;;;;8.94;100.00;101442.84;4973859;28;20509;-73
2023/09/24 05:41:10;;;;;;;9.18;5.43;;;;;;;9.02;100.00;101447.94;4986716;28;20129;-75
2023/09/24 05:43:44;;;;;;;8.07;5.28;;;;;;;8.98;100.00;101436.56;4982355;28;20096;-75
2023/09/24 05:46:14;;;;;;;8.85;5.13;;;;;;;8.95;100.00;101443.72;4988432;28;20483;-73
2023/09/24 05:48:42;;;;;;;9.85;5.45;;;;;;;9.01;100.00;101464.69;4963926;28;20475;-74
2023/09/24 05:51:11;;;;;;;8.65;5.72;;;;;;;9.02;100.00;101458.50;4987932;28;20054;-74
2023/09/24 05:53:41;;;;;;;9.80;5.57;;;;;;;9.09;100.00;101476.84;4980662;28;20046;-73
2023/09/24 05:56:09;;;;;;;6.72;5.45;;;;;;;9.14;100.00;101476.72;4969450;28;20110;-73
2023/09/24 05:58:39;;;;;;;8.18;5.28;;;;;;;9.14;100.00;101474.06;4986128;28;21263;-73
2023/09/24 06:01:07;;;;;;;7.25;4.80;;;;;;;9.20;100.00;101481.00;4984948;28;20054;-73
2023/09/24 06:03:37;;;;;;;8.05;5.30;;;;;;;9.15;100.00;101481.09;4982467;28;20125;-73
2023/09/24 06:06:10;;;;;;;8.88;5.28;;;;;;;9.22;100.00;101482.69;4967706;28;20042;-73
2023/09/24 06:08:38;;;;;;;11.70;6.20;;;;;;;9.28;100.00;101484.34;4968465;28;20109;-73
2023/09/24 06:11:08;;;;;;;7.80;5.70;;;;;;;9.26;100.00;101475.56;4990770;28;20050;-73
2023/09/24 06:13:36;;;;;;;11.75;6.10;;;;;;;9.34;100.00;101478.88;4979577;28;20046;-73
2023/09/24 06:16:06;;;;;;;9.00;6.53;;;;;;;9.39;100.00;101482.28;5000677;28;20046;-73
2023/09/24 06:18:36;;;;;;;10.10;6.82;;;;;;;9.40;100.00;101484.91;4951516;28;20113;-75
2023/09/24 06:21:09;;;;;;;11.88;6.50;;;;;;;9.45;100.00;101492.69;4971867;28;20055;-74
2023/09/24 06:23:37;;;;;;;10.15;6.97;;;;;;;9.48;100.00;101493.50;4945135;28;20120;-74
2023/09/24 06:26:05;;;;;;;10.68;6.70;;;;;;;9.62;100.00;101495.78;4970004;28;20064;-73
2023/09/24 06:28:33;;;;;;;9.35;6.75;;;;;;;9.72;100.00;101507.00;4971372;28;20075;-74
2023/09/24 06:31:03;;;;;;;12.73;6.53;;;;;;;9.78;100.00;101502.41;4971664;28;20238;-74
2023/09/24 06:33:31;;;;;;;9.07;6.45;;;;;;;9.80;100.00;101494.44;4977436;28;20057;-74
2023/09/24 06:36:03;;;;;;;8.90;6.82;;;;;;;9.94;100.00;101500.22;4985849;28;20071;-75
2023/09/24 06:38:33;;;;;;;11.48;6.57;;;;;;;10.02;100.00;101495.63;4982108;28;20174;-75
2023/09/24 06:41:05;;;;;;;10.18;5.97;;;;;;;10.17;100.00;101504.91;4970387;28;20092;-75
2023/09/24 06:43:33;;;;;;;11.25;6.15;;;;;;;10.28;100.00;101494.03;4978811;28;20090;-75
2023/09/24 06:46:04;;;;;;;8.30;6.60;;;;;;;10.53;100.00;101503.91;4981984;28;20059;-73
2023/09/24 06:48:35;;;;;;;8.40;5.95;;;;;;;10.75;100.00;101501.47;4973933;28;20067;-74
2023/09/24 06:51:08;;;;;;;6.72;5.35;;;;;;;10.94;100.00;101496.50;4948679;28;20071;-73
2023/09/24 06:53:38;;;;;;;9.93;5.97;;;;;;;11.31;100.00;101506.81;4960569;28;20055;-73
2023/09/24 06:56:07;;;;;;;9.50;6.27;;;;;;;11.65;100.00;101497.75;4966966;28;20082;-74
2023/09/24 06:58:39;;;;;;;7.28;5.60;;;;;;;11.92;100.00;101508.31;4963994;28;20384;-73
2023/09/24 07:01:14;;;;;;;7.95;6.00;;;;;;;12.09;100.00;101502.41;4981355;28;20427;-74
2023/09/24 07:03:42;;;;;;;11.35;5.50;;;;;;;12.35;100.00;101512.06;4976059;28;20519;-74
2023/09/24 07:06:16;;;;;;;8.38;5.25;;;;;;;12.62;100.00;101510.16;4968011;28;20093;-73
2023/09/24 07:08:45;;;;;;;7.97;5.70;;;;;;;12.90;100.00;101510.00;4962810;28;20050;-73
2023/09/24 07:11:25;;;;;;;9.40;5.60;;;;;;;13.06;100.00;101504.97;4981009;28;20046;-73
2023/09/24 07:13:54;;;;;;;8.57;5.70;;;;;;;13.18;100.00;101510.69;4977195;28;20055;-73
2023/09/24 07:16:23;;;;;;;9.57;5.97;;;;;;;13.27;100.00;101509.44;4968087;28;20058;-72
2023/09/24 07:18:52;;;;;;;8.85;5.43;;;;;;;13.28;100.00;101513.81;4983034;28;20046;-73
2023/09/24 07:21:25;;;;;;;6.82;5.40;;;;;;;13.31;100.00;101511.91;4980309;28;20069;-72
2023/09/24 07:24:02;;;;;;;;;;;;;;;13.41;100.00;101507.06;4993193;28;20060;-73
2023/09/24 07:26:31;;;;;;;11.32;5.65;;;;;;;13.54;100.00;101504.75;5018319;28;20371;-73
2023/09/24 07:29:00;;;;;;;8.07;5.53;;;;;;;13.61;100.00;101500.94;4986356;28;20030;-74
2023/09/24 07:31:31;;;;;;;8.38;5.70;;;;;;;13.61;100.00;101508.91;4982232;28;20051;-73
2023/09/24 07:34:01;;;;;;;9.77;5.40;;;;;;;13.68;100.00;101505.09;4996227;28;20058;-73
2023/09/24 07:36:32;;;;;;;7.60;5.05;;;;;;;13.93;100.00;101508.41;4986106;28;20103;-73
2023/09/24 07:39:18;;;;;;;7.45;4.78;;;;;;;14.26;100.00;101507.88;4981334;28;20027;-74
2023/09/24 07:41:46;;;;;;;7.05;4.90;;;;;;;14.51;100.00;101502.31;4996179;28;20065;-75
2023/09/24 07:44:14;;;;;;;10.40;5.68;;;;;;;14.79;100.00;101516.13;4984314;28;20060;-74
2023/09/24 07:46:43;;;;;;;9.25;5.07;;;;;;;14.92;100.00;101514.63;4985542;28;20059;-74
2023/09/24 07:49:11;;;;;;;8.93;4.85;;;;;;;14.84;100.00;101521.22;4970019;28;20059;-73
2023/09/24 07:51:41;;;;;;;8.75;4.82;;;;;;;14.70;100.00;101508.53;4956692;28;20554;-74
2023/09/24 07:54:10;;;;;;;8.55;5.15;;;;;;;14.87;100.00;101513.97;4961754;28;20046;-74
2023/09/24 07:56:41;;;;;;;6.75;4.70;;;;;;;15.01;100.00;101507.97;4968402;28;20050;-73
2023/09/24 07:59:11;;;;;;;5.30;4.18;;;;;;;15.43;100.00;101515.69;4968640;28;20110;-74
2023/09/24 08:01:39;;;;;;;6.10;4.70;;;;;;;15.64;100.00;101505.78;4954661;28;20052;-76
2023/09/24 08:04:08;;;;;;;6.45;4.18;;;;;;;15.74;100.00;101515.91;4959494;28;20113;-73
2023/09/24 08:06:36;;;;;;;7.40;4.22;;;;;;;15.72;100.00;101515.16;4963818;28;20138;-73
2023/09/24 08:09:06;;;;;;;8.77;4.40;;;;;;;15.64;100.00;101498.63;4966379;28;20047;-73
2023/09/24 08:11:53;;;;;;;8.88;4.70;;;;;;;15.74;100.00;101515.09;4964871;28;20054;-74
2023/09/24 08:14:24;;;;;;;;;;;;;;;15.83;100.00;101521.75;4958498;28;20055;-73
2023/09/24 08:16:53;;;;;;;6.10;4.07;;;;;;;15.94;100.00;101517.56;4969036;28;19926;-73
2023/09/24 08:19:21;;;;;;;7.15;4.00;;;;;;;16.07;100.00;101517.78;4963752;28;20061;-74
2023/09/24 08:21:52;;;;;;;6.55;4.50;;;;;;;15.86;100.00;101513.59;4952456;28;20495;-74
2023/09/24 08:24:21;;;;;;;8.75;4.80;;;;;;;15.99;100.00;101525.34;4957750;28;20039;-74
2023/09/24 08:26:50;;;;;;;6.57;4.30;;;;;;;16.20;100.00;101516.25;4968041;28;20031;-74
2023/09/24 08:29:20;;;;;;;5.95;4.25;;;;;;;16.25;100.00;101529.34;4963595;28;20050;-73
2023/09/24 08:31:48;;;;;;;8.02;4.65;;;;;;;16.09;100.00;101530.13;4958700;28;21412;-73
2023/09/24 08:34:16;;;;;;;10.25;5.63;;;;;;;15.50;100.00;101522.47;4955651;28;20055;-73
2023/09/24 08:36:45;;;;;;;7.28;5.13;;;;;;;15.17;100.00;101524.09;4963646;28;20062;-73
2023/09/24 08:39:14;;;;;;;7.63;5.00;;;;;;;14.94;100.00;101523.41;4947702;28;20059;-73
2023/09/24 08:41:45;;;;;;;7.30;5.05;;;;;;;14.89;100.00;101530.75;4961857;28;20106;-73
2023/09/24 08:44:17;;;;;;;9.07;5.50;;;;;;;14.93;100.00;101529.69;4959811;28;20861;-74
2023/09/24 08:46:46;;;;;;;7.93;4.90;;;;;;;14.82;100.00;101521.28;4978074;28;22826;-73
2023/09/24 08:49:15;;;;;;;8.02;5.18;;;;;;;14.71;100.00;101520.94;4966982;28;21283;-74
2023/09/24 08:51:45;;;;;;;7.05;5.13;;;;;;;14.61;100.00;101528.50;4979162;28;20042;-74
2023/09/24 08:54:16;;;;;;;7.72;5.75;;;;;;;14.58;100.00;101527.78;4973827;28;20603;-76
2023/09/24 08:56:46;;;;;;;7.53;5.18;;;;;;;14.57;100.00;101526.91;4976397;28;20054;-73
2023/09/24 08:59:15;;;;;;;7.45;5.00;;;;;;;14.83;100.00;101530.16;4960027;28;20106;-73
2023/09/24 09:01:52;;;;;;;8.97;4.77;;;;;;;15.02;100.00;101529.22;4965370;28;20039;-74
2023/09/24 09:04:24;;;;;;;7.15;5.07;;;;;;;15.03;100.00;101528.31;4948913;28;20339;-74
2023/09/24 09:06:53;;;;;;;6.47;5.28;;;;;;;14.99;100.00;101531.19;4983892;28;20047;-74
2023/09/24 09:09:26;;;;;;;7.13;5.13;;;;;;;15.12;100.00;101521.66;4962462;28;20078;-73
2023/09/24 09:11:55;;;;;;;7.50;4.90;;;;;;;15.33;100.00;101530.44;4965106;28;20073;-73
2023/09/24 09:14:37;;;;;;;7.63;4.70;;;;;;;15.43;100.00;101521.03;4965558;28;20078;-73
2023/09/24 09:17:05;;;;;;;6.60;4.68;;;;;;;15.50;100.00;101521.59;4964984;28;20082;-73
2023/09/24 09:19:47;;;;;;;9.02;5.07;;;;;;;15.45;100.00;101529.81;4966997;28;20070;-73
2023/09/24 09:22:20;;;;;;;5.65;4.70;;;;;;;15.47;100.00;101527.94;4980612;28;20166;-74
2023/09/24 09:24:50;;;;;;;7.90;4.95;;;;;;;15.64;100.00;101516.47;4971543;28;20058;-74
2023/09/24 09:27:20;;;;;;;7.68;4.50;;;;;;;15.71;100.00;101518.75;4981096;28;20039;-73
2023/09/24 09:29:48;;;;;;;;;;;;;;;15.55;100.00;101515.13;4979944;28;20065;-76
2023/09/24 09:32:16;;;;;;;8.45;5.10;;;;;;;15.56;100.00;101522.19;4962931;28;21045;-75
2023/09/24 09:34:54;;;;;;;7.32;4.50;;;;;;;15.72;100.00;101508.94;4979276;28;20051;-73
2023/09/24 09:37:22;;;;;;;6.18;4.40;;;;;;;15.92;100.00;101499.88;4967597;28;20105;-73
2023/09/24 09:39:53;;;;;;;8.93;4.60;;;;;;;16.19;100.00;101506.50;4978542;28;20134;-73
2023/09/24 09:42:26;;;;;;;9.40;4.50;;;;;;;16.43;100.00;101501.63;4951647;28;20055;-75
2023/09/24 09:44:55;;;;;;;6.13;4.43;;;;;;;16.69;100.00;101506.47;4959771;28;20046;-74
2023/09/24 09:47:28;;;;;;;9.82;4.18;;;;;;;16.92;100.00;101497.16;4968215;28;20368;-74
2023/09/24 09:49:59;;;;;;;7.38;4.30;;;;;;;17.09;97.60;101494.41;4967538;28;20419;-75
2023/09/24 09:52:34;;;;;;;6.35;4.13;;;;;;;17.16;96.88;101493.09;4982838;28;20145;-74
2023/09/24 09:55:06;;;;;;;6.03;4.35;;;;;;;17.16;96.34;101493.09;4967558;28;20221;-75
2023/09/24 09:57:38;;;;;;;9.80;4.63;;;;;;;17.16;96.37;101487.75;4969107;28;20061;-74
2023/09/24 10:00:10;;;;;;;8.68;4.53;;;;;;;17.09;97.00;101493.56;4965921;28;21233;-74
2023/09/24 10:02:42;;;;;;;8.00;4.78;;;;;;;17.13;96.68;101482.59;4971540;28;20059;-74
2023/09/24 10:05:13;;;;;;;6.22;4.20;;;;;;;17.14;97.49;101489.69;4964077;28;20047;-74
2023/09/24 10:07:42;;;;;;;6.63;4.05;;;;;;;17.17;95.66;101489.47;4957818;28;20046;-75
2023/09/24 10:10:42;;;;;;;8.47;4.40;;;;;;;17.26;94.29;101484.56;4974112;28;20070;-75
2023/09/24 10:13:44;;;;;;;6.07;3.60;;;;;;;17.43;95.35;101481.78;4964454;28;20569;-75
2023/09/24 10:16:38;;;;;;;7.03;3.45;;;;;;;17.62;90.18;101477.06;4952528;28;20182;-73
2023/09/24 10:19:11;;;;;;;5.43;3.53;;;;;;;17.74;90.52;101475.50;4987654;28;20046;-74
2023/09/24 10:21:43;;;;;;;4.18;3.03;;;;;;;17.84;89.56;101469.50;4984971;28;20061;-74
2023/09/24 10:24:48;;;;;;;4.70;2.80;;;;;;;17.96;88.64;101453.63;4965305;28;20074;-74
2023/09/24 10:27:30;;;;;;;3.17;2.70;;;;;;;18.13;87.95;101464.16;4985794;28;20042;-73
2023/09/24 10:30:09;;;;;;;6.68;2.55;;;;;;;18.23;85.63;101463.53;4983208;28;20043;-73
2023/09/24 10:32:52;;;;;;;4.65;2.72;;;;;;;18.28;85.35;101457.84;4999321;28;20046;-73
2023/09/24 10:35:21;;;;;;;7.63;3.28;;;;;;;18.37;84.41;101448.41;4992363;28;20043;-74
2023/09/24 10:38:02;;;;;;;3.47;2.17;;;;;;;18.02;83.81;101447.91;4960331;28;20058;-73
2023/09/24 10:40:32;;;;;;;4.65;2.17;;;;;;;17.87;90.56;101444.34;4978966;28;20054;-73
2023/09/24 10:43:19;;;;;;;3.95;2.42;;;;;;;18.08;91.76;101443.03;4961070;28;20059;-73
2023/09/24 10:45:49;;;;;;;9.07;3.15;;;;;;;18.15;88.58;101424.72;4942688;28;20073;-73
2023/09/24 10:48:19;;;;;;;8.70;3.63;;;;;;;18.48;90.40;101437.84;4983143;28;20051;-74
2023/09/24 10:50:59;;;;;;;4.32;2.35;;;;;;;18.74;83.88;101438.88;4990252;28;20106;-74
2023/09/24 10:53:28;;;;;;;4.13;2.88;;;;;;;18.89;81.37;101443.25;4972435;28;20079;-74
2023/09/24 10:56:02;;;;;;;4.45;2.25;;;;;;;18.87;77.71;101446.06;4979028;28;20058;-72
2023/09/24 10:58:38;;;;;;;4.88;2.40;;;;;;;18.88;80.64;101437.06;4972979;28;20142;-76
2023/09/24 11:01:09;;;;;;;3.03;1.88;;;;;;;18.99;75.84;101435.47;4972615;28;20054;-73
2023/09/24 11:03:40;;;;;;;6.88;2.22;;;;;;;18.97;73.02;101426.66;4970309;28;20038;-75
2023/09/24 11:06:11;;;;;;;8.15;2.78;;;;;;;18.95;75.31;101434.81;4979645;28;20109;-74
2023/09/24 11:08:42;;;;;;;5.55;2.35;;;;;;;18.90;76.47;101419.00;4968665;28;20089;-74
2023/09/24 11:11:10;;;;;;;3.35;1.92;;;;;;;19.02;76.21;101416.50;4972810;28;20044;-73
2023/09/24 11:13:39;;;;;;;4.45;1.90;;;;;;;19.17;73.96;101435.13;4983912;28;20054;-73
2023/09/24 11:16:13;;;;;;;6.13;1.98;;;;;;;19.30;73.86;101428.94;4967445;28;20054;-74
2023/09/24 11:18:48;;;;;;;4.70;2.22;;;;;;;19.39;71.56;101431.00;4971250;28;20043;-73
2023/09/24 11:21:17;;;;;;;2.63;1.48;;;;;;;19.52;69.09;101429.22;4973563;28;20038;-74
2023/09/24 11:23:46;;;;;;;2.42;1.50;;;;;;;19.61;63.05;101428.63;4972292;28;20062;-74
2023/09/24 11:26:18;;;;;;;3.00;1.50;;;;;;;19.40;66.95;101425.53;4972701;28;20106;-73
2023/09/24 11:28:49;;;;;;;2.83;1.23;;;;;;;19.30;68.97;101429.81;4962030;28;20054;-73
2023/09/24 11:31:27;;;;;;;3.38;1.55;;;;;;;19.40;68.49;101405.88;4974219;28;20822;-74
2023/09/24 11:33:56;;;;;;;1.95;1.23;;;;;;;19.57;64.99;101400.25;4982558;28;20547;-73
2023/09/24 11:36:28;;;;;;;4.65;1.30;;;;;;;19.66;60.74;101421.13;4964112;28;20053;-74
2023/09/24 11:39:00;;;;;;;2.97;1.60;;;;;;;19.45;61.84;101418.03;4972433;28;20101;-73